Terminal Aerodrome Forecast
Issued by NWS Greer, SC

Home | Current Version | Previous Version | Text Only | Print | Product List | Glossary On
Versions: 1 2 3 4 5 6 7 8 9 10 11 12 13 14 15 16 17 18 19 20 21 22 23 24 25 26 27 28 29 30 31 32 33 34 35 36 37 38 39 40 41 42 43 44 45 46
000
FTUS42 KGSP 231132
TAFCLT
TAF
KCLT 231132Z 2312/2412 13012G17KT 5SM -SHRA BR OVC006
      TEMPO 2312/2315 OVC003
     FM231600 15014G22KT 4SM SHRA BR OVC010 WS020/16040KT
      TEMPO 2318/2322 17018G30KT 1SM +TSRA OVC006CB
     FM232300 19011KT 6SM BR VCSH BKN010
     FM240100 20009KT P6SM SCT020 BKN050
     FM240600 24005KT P6SM SCT150
     FM240900 25004KT 6SM BR SCT250=

USA.gov is the U.S. government's official web portal to all federal, state and local government web resources and services.